Time;durP1;ratioP1;P1;durP2;ratioP2;P2;SDS_P1;SDS_P2;PMS_P1;PMS_P2;Temp;Humidity;BMP_temperature;BMP_pressure;BME280_temperature;BME280_humidity;BME280_pressure;Samples;Min_cycle;Max_cycle;Signal;HPM_P1;HPM_P2
2021/10/25 03:51:18;;;;;;;34.95;11.35;;;;;;;-0.73;78.22;100981.38;5022314;27;105823;-62
2021/10/25 03:53:54;;;;;;;27.27;11.35;;;;;;;-0.69;78.44;100975.91;5004991;28;106277;-61
2021/10/25 04:02:04;;;;;;;29.15;12.75;;;;;;;-0.53;78.33;100969.91;4981836;28;105856;-66
2021/10/25 04:13:24;;;;;;;23.27;11.55;;;;;;;-0.38;78.55;100958.63;4985191;28;106087;-67
2021/10/25 04:27:10;;;;;;;19.42;10.85;;;;;;;-0.21;79.14;100956.88;4964343;28;106339;-62
2021/10/25 04:29:36;;;;;;;22.67;11.55;;;;;;;-0.20;78.71;100958.59;4964157;28;106177;-65
2021/10/25 04:32:06;;;;;;;21.45;10.70;;;;;;;-0.18;78.82;100962.81;4963790;28;105974;-66
2021/10/25 04:34:32;;;;;;;20.25;10.25;;;;;;;-0.15;78.80;100964.44;4964994;28;106130;-65
2021/10/25 04:36:58;;;;;;;27.35;12.57;;;;;;;-0.12;78.76;100956.41;4964350;28;105922;-64
2021/10/25 04:39:23;;;;;;;25.23;10.18;;;;;;;-0.09;79.30;100952.78;4963826;28;106009;-65
2021/10/25 04:41:48;;;;;;;27.13;11.95;;;;;;;-0.06;79.32;100955.22;4963736;28;106136;-63
2021/10/25 04:44:14;;;;;;;20.52;11.55;;;;;;;-0.05;79.26;100949.91;4964891;28;105873;-64
2021/10/25 04:46:39;;;;;;;16.73;10.50;;;;;;;-0.04;79.34;100945.50;4963492;28;106214;-63
2021/10/25 04:49:04;;;;;;;25.10;10.82;;;;;;;-0.04;78.79;100946.34;4963641;28;106146;-63
2021/10/25 04:51:33;;;;;;;25.58;11.98;;;;;;;-0.03;78.95;100942.81;4963710;28;106035;-63
2021/10/25 04:53:59;;;;;;;23.00;10.77;;;;;;;-0.02;78.97;100951.50;4962691;28;106076;-65
2021/10/25 04:56:24;;;;;;;20.83;10.57;;;;;;;-0.03;79.34;100947.19;4896802;28;106121;-68
2021/10/25 04:58:49;;;;;;;27.33;10.48;;;;;;;-0.04;78.77;100954.22;4938076;28;106123;-64
2021/10/25 05:01:15;;;;;;;23.50;10.30;;;;;;;-0.04;78.80;100942.88;4930719;28;105830;-67
2021/10/25 05:03:40;;;;;;;21.33;10.38;;;;;;;-0.04;78.90;100940.25;4929695;28;106259;-67
2021/10/25 05:06:07;;;;;;;19.25;11.80;;;;;;;-0.03;79.10;100937.56;4928940;28;106754;-66
2021/10/25 05:08:32;;;;;;;24.55;13.65;;;;;;;0.01;79.47;100937.41;4927989;28;108218;-66
2021/10/25 05:10:58;;;;;;;27.25;10.95;;;;;;;-0.01;79.42;100938.31;4928668;28;106027;-66
2021/10/25 05:13:23;;;;;;;26.75;11.38;;;;;;;0.01;79.17;100933.00;4929184;28;106001;-66
2021/10/25 05:15:48;;;;;;;21.02;10.80;;;;;;;-0.01;79.07;100930.47;4928862;28;105933;-65
2021/10/25 05:18:13;;;;;;;26.17;12.70;;;;;;;-0.03;78.70;100934.09;4930157;28;106562;-64
2021/10/25 05:20:40;;;;;;;27.35;11.25;;;;;;;-0.06;79.17;100942.97;4930563;28;105992;-64
2021/10/25 05:23:05;;;;;;;23.67;11.70;;;;;;;-0.07;79.39;100925.56;4931583;28;106067;-68
2021/10/25 05:25:31;;;;;;;25.30;11.50;;;;;;;-0.07;79.31;100925.56;4931043;28;105918;-62
2021/10/25 05:27:57;;;;;;;23.58;11.23;;;;;;;-0.05;79.30;100923.69;4930926;28;105858;-61
2021/10/25 05:30:22;;;;;;;23.77;11.57;;;;;;;-0.04;79.14;100920.16;4930698;28;105803;-63
2021/10/25 05:32:47;;;;;;;17.63;9.25;;;;;;;-0.03;79.32;100915.75;4930912;28;105764;-64
2021/10/25 05:35:13;;;;;;;22.83;11.77;;;;;;;-0.02;78.92;100922.69;4930994;28;106720;-63
2021/10/25 05:37:38;;;;;;;24.15;11.45;;;;;;;0.01;79.26;100913.81;4930694;28;105926;-65
2021/10/25 05:40:04;;;;;;;20.10;9.63;;;;;;;0.03;79.45;100914.56;4930902;28;106180;-65
2021/10/25 05:42:29;;;;;;;18.42;10.30;;;;;;;0.06;79.56;100917.88;4931878;28;105775;-72
2021/10/25 05:44:55;;;;;;;20.20;9.60;;;;;;;0.11;79.37;100913.22;4930580;28;106131;-67
2021/10/25 05:47:20;;;;;;;19.45;9.85;;;;;;;0.21;79.51;100921.41;4930098;28;105915;-67
2021/10/25 05:49:45;;;;;;;20.52;10.30;;;;;;;0.29;79.80;100913.97;4931150;28;106580;-66
2021/10/25 05:52:11;;;;;;;19.98;10.15;;;;;;;0.39;79.81;100911.69;4930336;28;105958;-67
2021/10/25 05:54:36;;;;;;;17.00;9.52;;;;;;;0.53;79.52;100908.25;4929630;28;106172;-66
2021/10/25 05:57:02;;;;;;;19.55;7.97;;;;;;;0.75;80.18;100901.78;4929862;28;106189;-66
2021/10/25 05:59:29;;;;;;;15.10;8.00;;;;;;;1.08;80.37;100905.97;4931043;28;106105;-65
2021/10/25 06:02:08;;;;;;;13.88;7.63;;;;;;;1.32;79.91;100901.88;4930744;28;106061;-66
2021/10/25 06:04:34;;;;;;;19.13;7.13;;;;;;;1.58;79.55;100912.56;4930501;28;105701;-68
2021/10/25 06:06:59;;;;;;;12.13;7.10;;;;;;;1.79;79.27;100909.56;4929969;28;105974;-66
2021/10/25 06:09:27;;;;;;;11.80;7.10;;;;;;;1.99;78.70;100917.03;4930070;28;106282;-65
2021/10/25 06:11:52;;;;;;;16.85;7.57;;;;;;;2.18;78.44;100910.59;4930018;28;106015;-65
2021/10/25 06:14:26;;;;;;;17.45;9.07;;;;;;;2.31;78.02;100906.25;4930704;28;106332;-65
2021/10/25 06:16:57;;;;;;;14.07;8.10;;;;;;;2.44;77.68;100914.19;4930914;28;105970;-65
2021/10/25 06:19:23;;;;;;;16.95;9.63;;;;;;;2.52;77.04;100909.25;4930568;28;105965;-65
2021/10/25 06:21:48;;;;;;;20.17;8.60;;;;;;;2.64;77.27;100926.03;4931278;28;105857;-63
2021/10/25 06:24:13;;;;;;;18.63;11.52;;;;;;;2.75;77.14;100903.41;4930737;28;106208;-65
2021/10/25 06:26:39;;;;;;;16.83;8.18;;;;;;;2.82;76.60;100909.97;4929859;28;106020;-67
2021/10/25 06:29:04;;;;;;;10.93;6.82;;;;;;;2.95;77.04;100905.56;4930371;28;105804;-66
2021/10/25 06:31:31;;;;;;;14.13;7.25;;;;;;;3.12;76.47;100901.81;4931131;28;105867;-61
2021/10/25 06:33:59;;;;;;;13.32;6.88;;;;;;;3.31;76.14;100901.38;4929993;28;106521;-62
2021/10/25 06:36:25;;;;;;;15.77;8.27;;;;;;;3.54;75.86;100896.28;4929373;28;106830;-61
2021/10/25 06:38:55;;;;;;;14.90;7.18;;;;;;;3.75;75.38;100904.50;4930133;28;105963;-66
2021/10/25 06:41:22;;;;;;;13.30;5.82;;;;;;;3.98;75.31;100902.88;4931172;28;105760;-66
2021/10/25 06:43:48;;;;;;;12.70;7.47;;;;;;;4.23;74.68;100903.72;4930101;28;106192;-64
2021/10/25 06:46:14;;;;;;;10.30;5.80;;;;;;;4.47;74.81;100900.25;4929950;28;106034;-64
2021/10/25 06:48:39;;;;;;;13.52;6.80;;;;;;;4.70;74.30;100907.31;4930067;28;106535;-64
2021/10/25 06:51:05;;;;;;;13.23;6.13;;;;;;;4.93;73.78;100899.44;4930886;28;105942;-64
2021/10/25 06:53:30;;;;;;;11.13;6.25;;;;;;;5.17;73.15;100911.75;4930545;28;106010;-61
2021/10/25 06:55:56;;;;;;;10.20;5.85;;;;;;;5.36;73.33;100909.38;4929836;28;106454;-62
2021/10/25 06:58:22;;;;;;;11.30;5.30;;;;;;;5.62;73.04;100903.00;4930232;28;106323;-62
2021/10/25 07:00:48;;;;;;;13.10;6.60;;;;;;;5.87;72.61;100908.03;4930997;28;105896;-65
2021/10/25 07:03:14;;;;;;;13.70;6.40;;;;;;;6.15;72.05;100905.00;4930114;28;105874;-63
2021/10/25 07:05:41;;;;;;;13.98;7.20;;;;;;;6.38;71.16;100908.44;4929638;28;105841;-64
2021/10/25 07:08:06;;;;;;;12.90;6.25;;;;;;;6.68;71.33;100913.00;4929461;28;106701;-63
2021/10/25 07:10:34;;;;;;;13.23;5.75;;;;;;;6.88;70.08;100898.13;4930188;28;105943;-63
2021/10/25 07:12:59;;;;;;;11.00;6.28;;;;;;;7.07;69.80;100897.41;4929520;28;106205;-64
2021/10/25 07:15:27;;;;;;;12.27;5.47;;;;;;;7.24;69.00;100898.59;4929118;28;106132;-64
2021/10/25 07:20:32;;;;;;;11.85;7.45;;;;;;;7.54;67.74;100898.75;4930322;28;105843;-65
2021/10/25 07:28:10;;;;;;;13.05;6.55;;;;;;;7.93;66.58;100894.44;4929499;28;106054;-66
2021/10/25 08:10:57;;;;;;;9.75;4.18;;;;;;;20.95;43.12;100883.84;4925974;28;106766;-66
2021/10/25 08:13:29;;;;;;;12.63;4.80;;;;;;;20.72;40.80;100881.75;4927949;28;106120;-67
2021/10/25 08:15:55;;;;;;;9.30;4.40;;;;;;;20.32;37.98;100882.03;4926550;28;106056;-67
2021/10/25 08:20:46;;;;;;;8.20;4.72;;;;;;;19.59;34.34;100898.34;4928346;28;106066;-66
2021/10/25 08:23:12;;;;;;;12.65;5.68;;;;;;;19.16;32.74;100885.34;4928920;28;106313;-67
2021/10/25 08:25:37;;;;;;;5.70;3.15;;;;;;;18.98;31.18;100891.41;4927751;28;106303;-66
2021/10/25 08:28:03;;;;;;;6.28;2.92;;;;;;;18.94;30.48;100880.22;4927825;28;106669;-67
2021/10/25 08:30:28;;;;;;;8.35;3.28;;;;;;;19.51;30.50;100852.66;4928365;28;105979;-65
2021/10/25 08:35:49;;;;;;;8.85;3.90;;;;;;;21.46;28.36;100865.66;4930964;28;105876;-66
2021/10/25 08:40:55;;;;;;;8.48;3.80;;;;;;;23.43;25.99;100854.09;4931639;28;105815;-66
2021/10/25 08:43:20;;;;;;;8.80;3.78;;;;;;;24.65;25.03;100853.09;4932450;28;105895;-66
2021/10/25 08:45:50;;;;;;;10.52;4.60;;;;;;;25.31;23.77;100850.47;4931131;28;106501;-65
2021/10/25 08:48:16;;;;;;;10.43;4.45;;;;;;;26.52;22.84;100845.00;4931295;28;106121;-65
2021/10/25 08:50:41;;;;;;;9.85;4.20;;;;;;;27.14;21.37;100841.88;4930617;28;106085;-65
2021/10/25 08:53:09;;;;;;;12.40;4.45;;;;;;;27.84;20.52;100863.50;4931739;28;106076;-67
2021/10/25 08:55:34;;;;;;;13.50;5.53;;;;;;;28.94;19.92;100841.38;4931670;28;105824;-65
2021/10/25 08:58:00;;;;;;;8.35;4.70;;;;;;;30.07;18.33;100837.34;4931275;28;106074;-64
2021/10/25 09:00:35;;;;;;;10.52;4.65;;;;;;;30.51;17.55;100848.28;4930804;28;105719;-65
2021/10/25 09:03:02;;;;;;;6.30;3.03;;;;;;;30.94;17.04;100847.56;4932353;28;105932;-66
2021/10/25 09:05:28;;;;;;;9.65;4.03;;;;;;;30.72;16.77;100840.66;4931613;28;106167;-66
2021/10/25 09:07:57;;;;;;;8.18;3.85;;;;;;;30.90;16.24;100838.28;4930717;28;106057;-66
2021/10/25 09:10:28;;;;;;;9.27;3.58;;;;;;;31.52;15.48;100848.56;4929857;28;106462;-65
2021/10/25 09:13:16;;;;;;;6.38;2.92;;;;;;;31.66;14.19;100857.78;4931646;28;106335;-66
2021/10/25 09:15:45;;;;;;;5.97;2.92;;;;;;;30.95;14.52;100845.63;4931379;28;106679;-66
2021/10/25 09:18:13;;;;;;;5.88;2.53;;;;;;;30.21;14.38;100852.09;4930798;28;105772;-65
2021/10/25 09:20:53;;;;;;;4.85;2.67;;;;;;;29.98;14.58;100840.69;4931461;28;105928;-66
2021/10/25 09:23:25;;;;;;;7.15;3.00;;;;;;;30.83;14.71;100844.09;4931640;28;105907;-65
2021/10/25 09:25:58;;;;;;;6.00;2.63;;;;;;;31.57;14.23;100870.53;4930653;28;106284;-66
2021/10/25 09:28:29;;;;;;;4.38;2.60;;;;;;;31.92;13.97;100840.88;4930656;28;105974;-67
2021/10/25 09:31:00;;;;;;;5.68;2.35;;;;;;;32.53;13.55;100841.84;4930968;28;106685;-65
2021/10/25 09:33:35;;;;;;;6.80;2.30;;;;;;;32.68;13.14;100849.03;4931519;28;106124;-66
2021/10/25 09:36:03;;;;;;;4.80;2.25;;;;;;;32.28;13.17;100837.56;4930231;28;106109;-67
2021/10/25 09:49:08;;;;;;;8.00;2.50;;;;;;;33.58;11.70;100842.31;4927590;28;106060;-66
2021/10/25 09:51:37;;;;;;;5.93;2.10;;;;;;;33.33;11.17;100827.94;4930963;28;106205;-68
2021/10/25 09:54:03;;;;;;;5.47;2.20;;;;;;;33.24;11.64;100827.00;4931096;28;106021;-67
2021/10/25 09:56:32;;;;;;;7.15;2.22;;;;;;;32.99;11.35;100818.09;4931178;28;106269;-66
2021/10/25 09:59:10;;;;;;;5.15;1.85;;;;;;;32.33;11.22;100825.66;4930099;28;106916;-66
2021/10/25 10:01:36;;;;;;;7.28;1.70;;;;;;;32.72;10.81;100821.66;4930588;28;105797;-66
2021/10/25 10:04:03;;;;;;;6.30;1.83;;;;;;;32.65;10.93;100815.72;4931053;28;106007;-65
2021/10/25 10:06:28;;;;;;;5.80;1.70;;;;;;;32.77;10.86;100802.28;4930516;28;105858;-66
2021/10/25 10:08:55;;;;;;;3.78;1.52;;;;;;;33.35;10.67;100809.13;4930437;28;106017;-66
2021/10/25 10:11:21;;;;;;;5.88;1.40;;;;;;;33.47;10.67;100825.16;4930151;28;105898;-66
2021/10/25 10:13:47;;;;;;;3.55;1.85;;;;;;;33.28;10.13;100814.22;4930623;28;106134;-66
2021/10/25 10:16:13;;;;;;;5.88;1.63;;;;;;;33.49;10.31;100811.03;4930794;28;106006;-65
2021/10/25 10:18:53;;;;;;;6.15;1.80;;;;;;;33.56;9.67;100803.16;4930233;28;106647;-66
2021/10/25 10:21:19;;;;;;;4.70;1.42;;;;;;;33.29;9.74;100810.34;4930246;28;105978;-67
2021/10/25 10:23:53;;;;;;;4.15;1.40;;;;;;;33.20;9.70;100801.13;4928772;28;106130;-68
2021/10/25 10:26:18;;;;;;;4.07;1.45;;;;;;;32.96;9.84;100798.56;4929281;28;106105;-67
2021/10/25 10:28:50;;;;;;;3.97;1.50;;;;;;;33.59;10.26;100791.47;4928246;28;106194;-66
2021/10/25 10:31:24;;;;;;;5.20;1.58;;;;;;;33.48;10.00;100803.88;4928680;28;106541;-67
2021/10/25 10:33:57;;;;;;;2.97;1.38;;;;;;;33.46;9.94;100819.94;4929630;28;106556;-67
2021/10/25 10:36:34;;;;;;;2.40;1.40;;;;;;;32.84;9.54;100799.91;4928576;28;105946;-68
2021/10/25 10:39:10;;;;;;;3.15;1.20;;;;;;;32.05;10.18;100804.31;4928647;28;106034;-67
2021/10/25 10:41:40;;;;;;;4.57;1.20;;;;;;;32.16;10.51;100806.91;4925965;28;106372;-67
2021/10/25 10:44:08;;;;;;;5.75;1.40;;;;;;;31.75;10.30;100791.00;4926802;28;106713;-69
2021/10/25 10:46:51;;;;;;;4.20;1.40;;;;;;;31.43;10.37;100790.59;4929624;28;106224;-68
2021/10/25 10:49:33;;;;;;;3.03;1.42;;;;;;;32.19;10.33;100782.34;4929499;28;106556;-66
2021/10/25 10:58:11;;;;;;;4.55;2.05;;;;;;;33.45;9.57;100757.53;4926260;28;106562;-69
2021/10/25 11:00:44;;;;;;;5.27;1.87;;;;;;;33.33;9.87;100764.44;4929921;28;105974;-68
2021/10/25 11:03:26;;;;;;;5.72;1.65;;;;;;;32.93;10.23;100750.38;4929738;28;106042;-67
2021/10/25 11:06:11;;;;;;;2.83;1.42;;;;;;;34.17;9.70;100762.16;4929847;28;106314;-68
2021/10/25 11:08:41;;;;;;;5.13;1.77;;;;;;;34.27;9.54;100763.03;4929942;28;106043;-67
2021/10/25 11:11:16;;;;;;;5.05;1.65;;;;;;;34.21;9.27;100788.03;4929576;28;106669;-67
2021/10/25 11:13:49;;;;;;;6.20;1.77;;;;;;;33.68;9.74;100761.97;4929177;28;106306;-67
2021/10/25 11:16:21;;;;;;;3.17;1.63;;;;;;;34.24;9.43;100770.00;4930083;28;106064;-67
2021/10/25 11:18:52;;;;;;;5.53;1.90;;;;;;;33.69;9.70;100752.53;4929557;28;106384;-68
2021/10/25 11:21:21;;;;;;;3.40;1.40;;;;;;;33.36;10.01;100769.31;4928901;28;105756;-67
2021/10/25 11:24:05;;;;;;;4.72;2.00;;;;;;;33.71;9.47;100760.53;4929321;28;106649;-67
2021/10/25 11:26:40;;;;;;;6.15;1.77;;;;;;;34.39;8.93;100758.59;4930061;28;107437;-67
2021/10/25 11:29:08;;;;;;;4.85;1.77;;;;;;;34.53;9.17;100761.25;4929331;28;106256;-66
2021/10/25 11:31:40;;;;;;;7.88;3.63;;;;;;;33.99;9.15;100755.72;4928870;28;106818;-68
2021/10/25 11:34:41;;;;;;;5.28;2.17;;;;;;;33.84;9.04;100778.22;4928809;28;105893;-66
2021/10/25 11:37:10;;;;;;;5.65;2.40;;;;;;;32.81;9.52;100772.94;4925976;28;106171;-66
2021/10/25 11:39:44;;;;;;;7.55;2.70;;;;;;;32.40;9.74;100757.97;4927452;28;106305;-66
2021/10/25 11:42:12;;;;;;;5.25;1.98;;;;;;;32.25;9.89;100760.19;4929006;28;105836;-68
2021/10/25 11:44:42;;;;;;;5.18;2.00;;;;;;;32.52;10.07;100751.13;4929312;28;106010;-67
2021/10/25 11:47:38;;;;;;;10.57;4.25;;;;;;;33.49;9.83;100741.97;4929419;28;106537;-67
2021/10/25 11:50:17;;;;;;;5.57;1.80;;;;;;;34.15;9.56;100766.41;4916596;28;106284;-67
2021/10/25 11:52:55;;;;;;;4.67;2.10;;;;;;;34.22;9.36;100744.63;4928926;28;106213;-67
2021/10/25 11:55:25;;;;;;;9.82;3.50;;;;;;;34.15;9.44;100734.03;4928880;28;106471;-67
2021/10/25 11:57:57;;;;;;;8.02;2.60;;;;;;;34.32;9.56;100735.28;4929447;28;105990;-66
2021/10/25 12:00:25;;;;;;;11.80;3.13;;;;;;;33.99;9.61;100722.53;4929004;28;106380;-68
2021/10/25 12:02:51;;;;;;;6.35;2.40;;;;;;;33.36;9.51;100743.66;4928712;28;106320;-67
2021/10/25 12:05:25;;;;;;;5.03;1.80;;;;;;;31.21;10.58;100741.66;4928812;28;105885;-66
2021/10/25 12:07:54;;;;;;;6.32;2.20;;;;;;;29.46;11.71;100718.56;4929899;28;106163;-66
2021/10/25 12:10:22;;;;;;;5.68;2.50;;;;;;;29.57;12.23;100720.13;4931986;28;106116;-67
2021/10/25 12:13:08;;;;;;;5.05;1.88;;;;;;;29.75;12.12;100724.13;4931905;28;106297;-68
2021/10/25 12:15:39;;;;;;;6.13;2.03;;;;;;;29.27;11.97;100732.94;4930306;28;106385;-64
2021/10/25 12:18:07;;;;;;;4.80;1.98;;;;;;;28.98;12.38;100719.06;4933277;28;105977;-65
2021/10/25 12:20:38;;;;;;;3.75;1.80;;;;;;;30.42;11.98;100717.25;4932213;28;106072;-65
2021/10/25 12:23:08;;;;;;;4.80;2.28;;;;;;;30.91;11.86;100718.88;4932013;28;105971;-65
2021/10/25 12:25:34;;;;;;;4.90;2.03;;;;;;;31.90;10.99;100710.88;4931019;28;106267;-65
2021/10/25 12:28:12;;;;;;;6.32;2.10;;;;;;;32.10;10.91;100714.41;4932468;28;106097;-65
2021/10/25 12:30:38;;;;;;;7.03;2.17;;;;;;;31.31;11.39;100705.72;4932150;28;106268;-65
2021/10/25 12:33:04;;;;;;;6.18;1.70;;;;;;;30.53;11.85;100710.53;4931774;28;106820;-64
2021/10/25 12:35:45;;;;;;;3.97;2.08;;;;;;;30.48;12.00;100710.59;4931208;28;106138;-65
2021/10/25 12:38:16;;;;;;;4.47;1.92;;;;;;;30.91;11.51;100716.13;4932130;28;105989;-65
2021/10/25 12:40:49;;;;;;;7.15;2.20;;;;;;;29.28;12.81;100700.81;4930752;28;106303;-65
2021/10/25 12:43:16;;;;;;;2.83;1.38;;;;;;;29.03;12.68;100697.09;4931838;28;106142;-64
2021/10/25 12:45:55;;;;;;;6.45;2.38;;;;;;;29.65;12.54;100693.97;4931304;28;105988;-64
2021/10/25 12:48:21;;;;;;;4.78;2.30;;;;;;;29.63;12.46;100697.03;4931650;28;105886;-64
2021/10/25 12:50:50;;;;;;;7.30;2.63;;;;;;;29.14;12.78;100700.59;4931643;28;106288;-66
2021/10/25 12:53:16;;;;;;;5.93;2.17;;;;;;;29.32;12.66;100702.75;4931338;28;105951;-66
2021/10/25 12:55:53;;;;;;;3.97;1.95;;;;;;;28.91;13.09;100702.09;4931195;28;105856;-65
2021/10/25 12:58:22;;;;;;;11.00;3.08;;;;;;;29.05;13.51;100681.19;4931783;28;106088;-65
2021/10/25 13:00:48;;;;;;;11.63;6.05;;;;;;;28.41;13.67;100682.78;4931447;28;106187;-64
2021/10/25 17:23:54;;;;;;;10.73;4.07;;;;;;;8.06;43.96;100630.66;5014440;28;106606;-66
2021/10/25 17:26:21;;;;;;;11.15;4.72;;;;;;;8.05;44.44;100627.16;5003703;28;106097;-66
2021/10/25 17:28:47;;;;;;;10.95;4.68;;;;;;;8.08;44.49;100624.22;5004830;28;106262;-64
2021/10/25 17:31:12;;;;;;;11.48;5.20;;;;;;;8.10;45.17;100624.91;5004856;28;106142;-65
2021/10/25 17:33:38;;;;;;;15.95;5.82;;;;;;;8.13;45.62;100623.78;5005079;28;106179;-64
2021/10/25 17:36:04;;;;;;;17.02;6.82;;;;;;;8.16;45.84;100622.66;5012716;28;105975;-63
2021/10/25 17:38:29;;;;;;;15.35;6.78;;;;;;;8.20;45.81;100629.34;5025058;27;106169;-64
2021/10/25 17:41:00;;;;;;;10.50;5.18;;;;;;;8.26;45.99;100624.31;5025010;27;106025;-64
2021/10/25 17:43:25;;;;;;;9.50;4.80;;;;;;;8.34;45.75;100626.25;5006584;27;105934;-61
2021/10/25 17:45:56;;;;;;;9.77;4.40;;;;;;;8.39;45.28;100625.78;5006022;28;105969;-61
2021/10/25 17:48:22;;;;;;;10.88;4.90;;;;;;;8.40;45.78;100633.63;5005174;28;105768;-61
2021/10/25 17:50:50;;;;;;;10.32;4.65;;;;;;;8.44;45.34;100621.72;5005054;28;106263;-63
2021/10/25 17:53:17;;;;;;;10.55;4.82;;;;;;;8.49;45.22;100623.13;5010600;28;106892;-62
2021/10/25 17:55:42;;;;;;;10.43;4.82;;;;;;;8.49;45.22;100631.94;5015827;27;106315;-61
2021/10/25 17:58:08;;;;;;;11.52;5.45;;;;;;;8.50;45.51;100625.63;5004570;28;106361;-65
2021/10/25 18:00:33;;;;;;;9.32;4.28;;;;;;;8.50;45.25;100624.81;5004422;28;105897;-62
2021/10/25 18:03:06;;;;;;;10.13;4.93;;;;;;;8.50;45.13;100624.81;5004562;28;105954;-61
2021/10/25 18:05:32;;;;;;;8.63;4.18;;;;;;;8.48;45.44;100632.09;4985162;28;106067;-62
2021/10/25 18:07:58;;;;;;;13.27;4.63;;;;;;;8.47;44.91;100620.63;4984765;28;106311;-61
2021/10/25 18:10:25;;;;;;;8.35;4.13;;;;;;;8.49;45.66;100633.75;4983988;28;106202;-62
2021/10/25 18:12:50;;;;;;;8.05;4.03;;;;;;;8.49;45.27;100626.63;4994333;28;106094;-61
2021/10/25 18:15:16;;;;;;;7.95;3.83;;;;;;;8.52;45.67;100618.38;4985549;28;105756;-62
2021/10/25 18:17:41;;;;;;;7.63;3.00;;;;;;;8.58;45.55;100614.28;4984734;28;106253;-61
2021/10/25 18:20:09;;;;;;;10.32;4.13;;;;;;;8.62;45.49;100618.31;4984056;28;106056;-61
2021/10/25 18:22:34;;;;;;;7.30;3.03;;;;;;;8.66;45.29;100618.88;4983859;28;106111;-61
2021/10/25 18:25:00;;;;;;;6.78;3.33;;;;;;;8.69;45.63;100622.06;4985293;28;106067;-62
2021/10/25 18:27:25;;;;;;;9.63;3.65;;;;;;;8.69;44.87;100618.56;4992653;28;106169;-62
2021/10/25 18:29:51;;;;;;;6.32;2.75;;;;;;;8.68;45.10;100623.06;4994375;28;106113;-62
2021/10/25 18:32:18;;;;;;;9.40;3.83;;;;;;;8.69;45.29;100638.00;4984505;28;106012;-60
2021/10/25 18:34:44;;;;;;;10.48;3.40;;;;;;;8.69;44.96;100631.84;4974799;28;106113;-62
2021/10/25 18:37:10;;;;;;;7.68;3.10;;;;;;;8.69;45.63;100627.38;4971460;28;106170;-62
2021/10/25 18:39:36;;;;;;;9.35;3.78;;;;;;;8.70;45.50;100625.56;4970941;28;107205;-62
2021/10/25 18:42:04;;;;;;;9.95;3.92;;;;;;;8.69;45.22;100624.72;4970615;28;106134;-62
2021/10/25 18:44:30;;;;;;;7.85;3.55;;;;;;;8.69;45.14;100623.91;4971027;28;106005;-62
2021/10/25 18:46:58;;;;;;;7.78;3.10;;;;;;;8.70;45.70;100623.75;4971010;28;106250;-62
2021/10/25 18:49:24;;;;;;;8.13;3.47;;;;;;;8.67;45.40;100625.88;4969221;28;105941;-61
2021/10/25 18:51:49;;;;;;;9.15;3.88;;;;;;;8.66;45.09;100622.38;4970856;28;106351;-61
2021/10/25 18:54:14;;;;;;;9.23;3.45;;;;;;;8.66;45.00;100613.56;4970052;28;105988;-60
2021/10/25 18:56:40;;;;;;;7.63;3.40;;;;;;;8.66;45.37;100609.09;4971351;28;106039;-61
2021/10/25 18:59:08;;;;;;;11.35;3.83;;;;;;;8.61;44.91;100616.66;4970844;28;106062;-62
2021/10/25 19:01:38;;;;;;;7.45;3.60;;;;;;;8.59;45.02;100611.50;4970603;28;106537;-61
2021/10/25 19:04:04;;;;;;;10.68;3.90;;;;;;;8.55;45.63;100614.59;4971318;28;105864;-61
2021/10/25 19:06:29;;;;;;;11.73;3.78;;;;;;;8.51;45.18;100616.69;4970874;28;106157;-61
2021/10/25 19:08:54;;;;;;;10.57;3.38;;;;;;;8.49;45.55;100626.63;4970471;28;106059;-61
2021/10/25 19:11:21;;;;;;;10.95;3.90;;;;;;;8.46;46.00;100614.50;4970519;28;108902;-63
2021/10/25 19:13:46;;;;;;;11.00;3.67;;;;;;;8.45;46.12;100610.16;4970446;28;105923;-61
2021/10/25 19:16:12;;;;;;;9.68;3.97;;;;;;;8.43;45.88;100606.78;4970843;28;106093;-61
2021/10/25 19:18:40;;;;;;;6.88;3.20;;;;;;;8.41;45.68;100619.38;4970309;28;106699;-62
2021/10/25 19:21:05;;;;;;;8.50;4.10;;;;;;;8.39;45.71;100610.72;4969752;28;106060;-61
2021/10/25 19:23:32;;;;;;;8.48;3.40;;;;;;;8.35;46.00;100617.31;4969183;28;106613;-61
